sensor_id;sensor_type;location;lat;lon;timestamp;P1;durP1;ratioP1;P2;durP2;ratioP2
35128;SDS011;21301;43.626;10.580;2024-03-08T00:01:14;6.90;;;3.72;;
35128;SDS011;21301;43.626;10.580;2024-03-08T00:03:42;9.73;;;4.45;;
35128;SDS011;21301;43.626;10.580;2024-03-08T00:06:08;11.02;;;6.38;;
35128;SDS011;21301;43.626;10.580;2024-03-08T00:08:33;10.82;;;5.07;;
35128;SDS011;21301;43.626;10.580;2024-03-08T00:11:01;10.32;;;4.95;;
35128;SDS011;21301;43.626;10.580;2024-03-08T00:13:27;7.95;;;4.10;;
35128;SDS011;21301;43.626;10.580;2024-03-08T00:15:54;17.00;;;6.70;;
35128;SDS011;21301;43.626;10.580;2024-03-08T00:18:21;14.75;;;5.13;;
35128;SDS011;21301;43.626;10.580;2024-03-08T00:20:47;11.15;;;4.43;;
35128;SDS011;21301;43.626;10.580;2024-03-08T00:23:16;17.15;;;5.40;;
35128;SDS011;21301;43.626;10.580;2024-03-08T00:25:42;9.20;;;3.70;;
35128;SDS011;21301;43.626;10.580;2024-03-08T00:28:07;12.25;;;6.68;;
35128;SDS011;21301;43.626;10.580;2024-03-08T00:30:33;11.43;;;5.82;;
35128;SDS011;21301;43.626;10.580;2024-03-08T00:33:00;11.93;;;6.65;;
35128;SDS011;21301;43.626;10.580;2024-03-08T00:35:25;9.05;;;5.20;;
35128;SDS011;21301;43.626;10.580;2024-03-08T00:37:51;7.90;;;3.63;;
35128;SDS011;21301;43.626;10.580;2024-03-08T00:40:17;14.07;;;4.38;;
35128;SDS011;21301;43.626;10.580;2024-03-08T00:42:43;10.95;;;3.90;;
35128;SDS011;21301;43.626;10.580;2024-03-08T00:45:09;8.68;;;3.90;;
35128;SDS011;21301;43.626;10.580;2024-03-08T00:47:36;5.47;;;2.42;;
35128;SDS011;21301;43.626;10.580;2024-03-08T00:50:02;10.35;;;4.25;;
35128;SDS011;21301;43.626;10.580;2024-03-08T00:52:31;8.45;;;3.55;;
35128;SDS011;21301;43.626;10.580;2024-03-08T00:54:57;11.32;;;3.88;;
35128;SDS011;21301;43.626;10.580;2024-03-08T00:57:23;7.18;;;3.72;;
35128;SDS011;21301;43.626;10.580;2024-03-08T00:59:49;8.07;;;3.45;;
35128;SDS011;21301;43.626;10.580;2024-03-08T01:02:15;6.70;;;2.90;;
35128;SDS011;21301;43.626;10.580;2024-03-08T01:04:42;8.55;;;2.72;;
35128;SDS011;21301;43.626;10.580;2024-03-08T01:07:10;7.38;;;3.10;;
35128;SDS011;21301;43.626;10.580;2024-03-08T01:09:36;4.97;;;2.95;;
35128;SDS011;21301;43.626;10.580;2024-03-08T01:12:01;6.95;;;3.33;;
35128;SDS011;21301;43.626;10.580;2024-03-08T01:14:27;8.35;;;3.55;;
35128;SDS011;21301;43.626;10.580;2024-03-08T01:16:56;7.70;;;4.85;;
35128;SDS011;21301;43.626;10.580;2024-03-08T01:19:22;10.40;;;3.20;;
35128;SDS011;21301;43.626;10.580;2024-03-08T01:21:49;5.25;;;2.65;;
35128;SDS011;21301;43.626;10.580;2024-03-08T01:24:15;6.75;;;2.80;;
35128;SDS011;21301;43.626;10.580;2024-03-08T01:26:40;8.32;;;3.88;;
35128;SDS011;21301;43.626;10.580;2024-03-08T01:29:06;8.07;;;3.30;;
35128;SDS011;21301;43.626;10.580;2024-03-08T01:31:33;5.25;;;2.80;;
35128;SDS011;21301;43.626;10.580;2024-03-08T01:33:59;6.75;;;3.47;;
35128;SDS011;21301;43.626;10.580;2024-03-08T01:36:25;7.43;;;3.08;;
35128;SDS011;21301;43.626;10.580;2024-03-08T01:38:51;6.25;;;2.95;;
35128;SDS011;21301;43.626;10.580;2024-03-08T01:41:18;8.02;;;2.72;;
35128;SDS011;21301;43.626;10.580;2024-03-08T01:43:48;8.25;;;3.22;;
35128;SDS011;21301;43.626;10.580;2024-03-08T01:46:18;5.72;;;2.88;;
35128;SDS011;21301;43.626;10.580;2024-03-08T01:48:47;8.15;;;3.15;;
35128;SDS011;21301;43.626;10.580;2024-03-08T01:51:14;8.18;;;4.35;;
35128;SDS011;21301;43.626;10.580;2024-03-08T01:53:40;6.57;;;3.03;;
35128;SDS011;21301;43.626;10.580;2024-03-08T01:56:11;6.30;;;3.10;;
35128;SDS011;21301;43.626;10.580;2024-03-08T01:58:41;5.45;;;3.30;;
35128;SDS011;21301;43.626;10.580;2024-03-08T02:01:13;10.30;;;4.07;;
35128;SDS011;21301;43.626;10.580;2024-03-08T02:03:46;13.05;;;3.92;;
35128;SDS011;21301;43.626;10.580;2024-03-08T02:06:12;5.47;;;3.15;;
35128;SDS011;21301;43.626;10.580;2024-03-08T02:08:41;5.20;;;2.40;;
35128;SDS011;21301;43.626;10.580;2024-03-08T02:11:11;7.13;;;3.08;;
35128;SDS011;21301;43.626;10.580;2024-03-08T02:13:38;6.82;;;2.38;;
35128;SDS011;21301;43.626;10.580;2024-03-08T02:16:04;5.68;;;2.47;;
35128;SDS011;21301;43.626;10.580;2024-03-08T02:18:33;9.10;;;3.22;;
35128;SDS011;21301;43.626;10.580;2024-03-08T02:21:05;7.55;;;4.03;;
35128;SDS011;21301;43.626;10.580;2024-03-08T02:23:33;6.20;;;2.58;;
35128;SDS011;21301;43.626;10.580;2024-03-08T02:25:59;6.35;;;2.90;;
35128;SDS011;21301;43.626;10.580;2024-03-08T02:28:25;5.85;;;3.20;;
35128;SDS011;21301;43.626;10.580;2024-03-08T02:30:52;9.98;;;2.25;;
35128;SDS011;21301;43.626;10.580;2024-03-08T02:33:21;7.45;;;2.67;;
35128;SDS011;21301;43.626;10.580;2024-03-08T02:35:48;4.35;;;2.15;;
35128;SDS011;21301;43.626;10.580;2024-03-08T02:38:19;6.72;;;3.03;;
35128;SDS011;21301;43.626;10.580;2024-03-08T02:40:47;6.57;;;2.83;;
35128;SDS011;21301;43.626;10.580;2024-03-08T02:43:18;6.18;;;3.58;;
35128;SDS011;21301;43.626;10.580;2024-03-08T02:45:47;6.78;;;3.22;;
35128;SDS011;21301;43.626;10.580;2024-03-08T02:48:14;4.78;;;2.60;;
35128;SDS011;21301;43.626;10.580;2024-03-08T02:50:41;4.65;;;2.42;;
35128;SDS011;21301;43.626;10.580;2024-03-08T02:53:11;9.77;;;2.90;;
35128;SDS011;21301;43.626;10.580;2024-03-08T02:55:38;5.00;;;2.40;;
35128;SDS011;21301;43.626;10.580;2024-03-08T02:58:06;7.60;;;2.80;;
35128;SDS011;21301;43.626;10.580;2024-03-08T03:00:36;5.70;;;2.42;;
35128;SDS011;21301;43.626;10.580;2024-03-08T03:03:04;4.40;;;2.55;;
35128;SDS011;21301;43.626;10.580;2024-03-08T03:05:31;4.57;;;2.38;;
35128;SDS011;21301;43.626;10.580;2024-03-08T03:07:58;7.97;;;3.08;;
35128;SDS011;21301;43.626;10.580;2024-03-08T03:10:25;6.25;;;2.63;;
35128;SDS011;21301;43.626;10.580;2024-03-08T03:12:51;4.82;;;2.28;;
35128;SDS011;21301;43.626;10.580;2024-03-08T03:15:18;9.48;;;2.65;;
35128;SDS011;21301;43.626;10.580;2024-03-08T03:17:47;6.68;;;2.33;;
35128;SDS011;21301;43.626;10.580;2024-03-08T03:20:18;6.55;;;2.13;;
35128;SDS011;21301;43.626;10.580;2024-03-08T03:23:06;6.38;;;2.85;;
35128;SDS011;21301;43.626;10.580;2024-03-08T03:25:34;5.07;;;2.40;;
35128;SDS011;21301;43.626;10.580;2024-03-08T03:28:01;4.28;;;2.05;;
35128;SDS011;21301;43.626;10.580;2024-03-08T03:30:27;6.45;;;3.05;;
35128;SDS011;21301;43.626;10.580;2024-03-08T03:33:01;5.78;;;2.70;;
35128;SDS011;21301;43.626;10.580;2024-03-08T03:35:27;5.28;;;2.58;;
35128;SDS011;21301;43.626;10.580;2024-03-08T03:37:54;3.63;;;1.70;;
35128;SDS011;21301;43.626;10.580;2024-03-08T03:40:33;7.35;;;1.92;;
35128;SDS011;21301;43.626;10.580;2024-03-08T03:43:00;4.40;;;2.05;;
35128;SDS011;21301;43.626;10.580;2024-03-08T03:45:28;6.95;;;2.47;;
35128;SDS011;21301;43.626;10.580;2024-03-08T03:48:04;6.60;;;1.83;;
35128;SDS011;21301;43.626;10.580;2024-03-08T03:50:32;7.85;;;2.90;;
35128;SDS011;21301;43.626;10.580;2024-03-08T03:52:59;7.78;;;2.95;;
35128;SDS011;21301;43.626;10.580;2024-03-08T03:55:26;4.30;;;2.20;;
35128;SDS011;21301;43.626;10.580;2024-03-08T03:57:52;7.43;;;2.42;;
35128;SDS011;21301;43.626;10.580;2024-03-08T04:00:18;7.20;;;2.63;;
35128;SDS011;21301;43.626;10.580;2024-03-08T04:02:44;5.85;;;2.92;;
35128;SDS011;21301;43.626;10.580;2024-03-08T04:05:10;6.03;;;2.20;;
35128;SDS011;21301;43.626;10.580;2024-03-08T04:07:37;8.32;;;2.78;;
35128;SDS011;21301;43.626;10.580;2024-03-08T04:10:04;8.35;;;1.90;;
35128;SDS011;21301;43.626;10.580;2024-03-08T04:12:35;4.47;;;2.42;;
35128;SDS011;21301;43.626;10.580;2024-03-08T04:15:01;4.15;;;2.28;;
35128;SDS011;21301;43.626;10.580;2024-03-08T04:17:28;6.22;;;2.08;;
35128;SDS011;21301;43.626;10.580;2024-03-08T04:19:53;3.75;;;1.80;;
35128;SDS011;21301;43.626;10.580;2024-03-08T04:22:19;6.55;;;1.98;;
35128;SDS011;21301;43.626;10.580;2024-03-08T04:24:45;5.45;;;2.47;;
35128;SDS011;21301;43.626;10.580;2024-03-08T04:27:13;5.20;;;1.90;;
35128;SDS011;21301;43.626;10.580;2024-03-08T04:29:39;3.92;;;2.30;;
35128;SDS011;21301;43.626;10.580;2024-03-08T04:32:08;8.27;;;2.97;;
35128;SDS011;21301;43.626;10.580;2024-03-08T04:34:34;7.90;;;2.10;;
35128;SDS011;21301;43.626;10.580;2024-03-08T04:37:01;4.80;;;2.20;;
35128;SDS011;21301;43.626;10.580;2024-03-08T04:39:31;7.90;;;2.03;;
35128;SDS011;21301;43.626;10.580;2024-03-08T04:41:58;4.10;;;1.90;;
35128;SDS011;21301;43.626;10.580;2024-03-08T04:44:30;6.35;;;2.22;;
35128;SDS011;21301;43.626;10.580;2024-03-08T04:46:56;4.90;;;2.28;;
35128;SDS011;21301;43.626;10.580;2024-03-08T04:49:23;7.32;;;1.95;;
35128;SDS011;21301;43.626;10.580;2024-03-08T04:51:50;4.95;;;2.42;;
35128;SDS011;21301;43.626;10.580;2024-03-08T04:54:16;5.80;;;2.40;;
35128;SDS011;21301;43.626;10.580;2024-03-08T04:56:42;4.25;;;2.20;;
35128;SDS011;21301;43.626;10.580;2024-03-08T04:59:11;10.45;;;2.30;;
35128;SDS011;21301;43.626;10.580;2024-03-08T05:01:37;5.00;;;2.47;;
35128;SDS011;21301;43.626;10.580;2024-03-08T05:04:03;7.95;;;3.05;;
35128;SDS011;21301;43.626;10.580;2024-03-08T05:06:29;5.10;;;2.92;;
35128;SDS011;21301;43.626;10.580;2024-03-08T05:08:55;8.75;;;2.42;;
35128;SDS011;21301;43.626;10.580;2024-03-08T05:11:21;8.80;;;2.97;;
35128;SDS011;21301;43.626;10.580;2024-03-08T05:13:47;6.35;;;2.22;;
35128;SDS011;21301;43.626;10.580;2024-03-08T05:16:13;6.18;;;2.92;;
35128;SDS011;21301;43.626;10.580;2024-03-08T05:18:40;8.13;;;3.88;;
35128;SDS011;21301;43.626;10.580;2024-03-08T05:21:07;6.53;;;3.25;;
35128;SDS011;21301;43.626;10.580;2024-03-08T05:23:34;5.63;;;2.70;;
35128;SDS011;21301;43.626;10.580;2024-03-08T05:26:00;5.63;;;2.38;;
35128;SDS011;21301;43.626;10.580;2024-03-08T05:28:26;5.78;;;2.63;;
35128;SDS011;21301;43.626;10.580;2024-03-08T05:30:53;5.32;;;2.80;;
35128;SDS011;21301;43.626;10.580;2024-03-08T05:33:22;5.57;;;2.70;;
35128;SDS011;21301;43.626;10.580;2024-03-08T05:35:49;6.18;;;3.08;;
35128;SDS011;21301;43.626;10.580;2024-03-08T05:38:15;6.35;;;3.63;;
35128;SDS011;21301;43.626;10.580;2024-03-08T05:40:41;7.30;;;3.50;;
35128;SDS011;21301;43.626;10.580;2024-03-08T05:43:08;6.20;;;3.75;;
35128;SDS011;21301;43.626;10.580;2024-03-08T05:45:34;8.00;;;4.10;;
35128;SDS011;21301;43.626;10.580;2024-03-08T05:48:00;9.82;;;4.75;;
35128;SDS011;21301;43.626;10.580;2024-03-08T05:50:26;7.63;;;4.32;;
35128;SDS011;21301;43.626;10.580;2024-03-08T05:52:52;11.73;;;5.35;;
35128;SDS011;21301;43.626;10.580;2024-03-08T05:55:18;7.85;;;5.00;;
35128;SDS011;21301;43.626;10.580;2024-03-08T05:57:44;11.13;;;5.65;;
35128;SDS011;21301;43.626;10.580;2024-03-08T06:00:10;10.68;;;5.03;;
35128;SDS011;21301;43.626;10.580;2024-03-08T06:02:39;10.82;;;5.55;;
35128;SDS011;21301;43.626;10.580;2024-03-08T06:05:12;9.77;;;5.35;;
35128;SDS011;21301;43.626;10.580;2024-03-08T06:07:38;9.75;;;5.80;;
35128;SDS011;21301;43.626;10.580;2024-03-08T06:10:08;14.55;;;5.22;;
35128;SDS011;21301;43.626;10.580;2024-03-08T06:12:36;12.48;;;6.10;;
35128;SDS011;21301;43.626;10.580;2024-03-08T06:15:08;11.77;;;6.15;;
35128;SDS011;21301;43.626;10.580;2024-03-08T06:17:37;8.82;;;6.45;;
35128;SDS011;21301;43.626;10.580;2024-03-08T06:20:04;12.98;;;5.38;;
35128;SDS011;21301;43.626;10.580;2024-03-08T06:22:39;11.90;;;5.20;;
35128;SDS011;21301;43.626;10.580;2024-03-08T06:25:07;14.77;;;5.50;;
35128;SDS011;21301;43.626;10.580;2024-03-08T06:27:36;9.50;;;5.10;;
35128;SDS011;21301;43.626;10.580;2024-03-08T06:30:08;10.30;;;5.50;;
35128;SDS011;21301;43.626;10.580;2024-03-08T06:32:36;7.95;;;5.47;;
35128;SDS011;21301;43.626;10.580;2024-03-08T06:35:03;12.68;;;5.82;;
35128;SDS011;21301;43.626;10.580;2024-03-08T06:37:33;10.90;;;5.47;;
35128;SDS011;21301;43.626;10.580;2024-03-08T06:39:59;8.43;;;5.20;;
35128;SDS011;21301;43.626;10.580;2024-03-08T06:42:26;20.83;;;6.63;;
35128;SDS011;21301;43.626;10.580;2024-03-08T06:44:54;10.68;;;7.57;;
35128;SDS011;21301;43.626;10.580;2024-03-08T06:47:25;11.43;;;8.07;;
35128;SDS011;21301;43.626;10.580;2024-03-08T06:49:51;18.40;;;10.20;;
35128;SDS011;21301;43.626;10.580;2024-03-08T06:52:17;24.98;;;12.18;;
35128;SDS011;21301;43.626;10.580;2024-03-08T06:54:43;23.02;;;13.80;;
35128;SDS011;21301;43.626;10.580;2024-03-08T06:57:11;21.67;;;13.07;;
35128;SDS011;21301;43.626;10.580;2024-03-08T06:59:56;20.33;;;13.27;;
35128;SDS011;21301;43.626;10.580;2024-03-08T07:04:59;15.15;;;9.38;;
35128;SDS011;21301;43.626;10.580;2024-03-08T07:07:24;13.60;;;8.45;;
35128;SDS011;21301;43.626;10.580;2024-03-08T07:09:52;11.90;;;7.55;;
35128;SDS011;21301;43.626;10.580;2024-03-08T07:12:19;16.80;;;7.88;;
35128;SDS011;21301;43.626;10.580;2024-03-08T07:14:46;14.38;;;7.70;;
35128;SDS011;21301;43.626;10.580;2024-03-08T07:17:16;11.73;;;6.90;;
35128;SDS011;21301;43.626;10.580;2024-03-08T07:22:44;10.48;;;6.50;;
35128;SDS011;21301;43.626;10.580;2024-03-08T07:25:16;10.88;;;5.85;;
35128;SDS011;21301;43.626;10.580;2024-03-08T07:27:55;10.02;;;6.05;;
35128;SDS011;21301;43.626;10.580;2024-03-08T07:30:22;10.05;;;6.10;;
35128;SDS011;21301;43.626;10.580;2024-03-08T07:33:09;10.65;;;6.68;;
35128;SDS011;21301;43.626;10.580;2024-03-08T07:35:39;7.20;;;4.93;;
35128;SDS011;21301;43.626;10.580;2024-03-08T07:38:08;13.40;;;5.50;;
35128;SDS011;21301;43.626;10.580;2024-03-08T07:43:34;9.38;;;5.43;;
35128;SDS011;21301;43.626;10.580;2024-03-08T07:46:00;13.82;;;6.25;;
35128;SDS011;21301;43.626;10.580;2024-03-08T07:48:26;9.57;;;5.65;;
35128;SDS011;21301;43.626;10.580;2024-03-08T07:50:52;13.02;;;7.10;;
35128;SDS011;21301;43.626;10.580;2024-03-08T07:53:18;14.73;;;6.78;;
35128;SDS011;21301;43.626;10.580;2024-03-08T07:55:44;14.40;;;8.38;;
35128;SDS011;21301;43.626;10.580;2024-03-08T07:58:10;15.02;;;9.68;;
35128;SDS011;21301;43.626;10.580;2024-03-08T08:00:37;15.13;;;8.65;;
35128;SDS011;21301;43.626;10.580;2024-03-08T08:03:04;16.60;;;9.52;;
35128;SDS011;21301;43.626;10.580;2024-03-08T08:05:30;19.17;;;10.13;;
35128;SDS011;21301;43.626;10.580;2024-03-08T08:08:02;13.57;;;8.20;;
35128;SDS011;21301;43.626;10.580;2024-03-08T08:10:32;15.52;;;9.00;;
35128;SDS011;21301;43.626;10.580;2024-03-08T08:13:02;17.98;;;11.77;;
35128;SDS011;21301;43.626;10.580;2024-03-08T08:15:57;15.98;;;9.05;;
35128;SDS011;21301;43.626;10.580;2024-03-08T08:18:29;16.90;;;9.48;;
35128;SDS011;21301;43.626;10.580;2024-03-08T08:20:59;13.30;;;8.50;;
35128;SDS011;21301;43.626;10.580;2024-03-08T08:23:34;11.23;;;6.88;;
35128;SDS011;21301;43.626;10.580;2024-03-08T08:26:01;15.50;;;8.32;;
35128;SDS011;21301;43.626;10.580;2024-03-08T08:28:29;13.63;;;8.20;;
35128;SDS011;21301;43.626;10.580;2024-03-08T08:30:56;13.25;;;8.13;;
35128;SDS011;21301;43.626;10.580;2024-03-08T08:33:27;14.20;;;8.57;;
35128;SDS011;21301;43.626;10.580;2024-03-08T08:35:54;14.55;;;8.65;;
35128;SDS011;21301;43.626;10.580;2024-03-08T08:38:21;13.73;;;7.68;;
35128;SDS011;21301;43.626;10.580;2024-03-08T08:40:47;14.75;;;9.40;;
35128;SDS011;21301;43.626;10.580;2024-03-08T08:43:13;12.18;;;7.53;;
35128;SDS011;21301;43.626;10.580;2024-03-08T08:45:39;15.55;;;8.80;;
35128;SDS011;21301;43.626;10.580;2024-03-08T08:48:06;17.50;;;8.25;;
35128;SDS011;21301;43.626;10.580;2024-03-08T08:50:32;13.48;;;7.68;;
35128;SDS011;21301;43.626;10.580;2024-03-08T08:52:58;13.45;;;7.78;;
35128;SDS011;21301;43.626;10.580;2024-03-08T08:55:25;12.13;;;6.53;;
35128;SDS011;21301;43.626;10.580;2024-03-08T08:57:54;16.67;;;7.60;;
35128;SDS011;21301;43.626;10.580;2024-03-08T09:00:21;11.63;;;7.57;;
35128;SDS011;21301;43.626;10.580;2024-03-08T09:02:52;14.77;;;8.32;;
35128;SDS011;21301;43.626;10.580;2024-03-08T09:05:20;11.75;;;7.30;;
35128;SDS011;21301;43.626;10.580;2024-03-08T09:07:46;11.38;;;7.30;;
35128;SDS011;21301;43.626;10.580;2024-03-08T09:10:13;15.25;;;8.32;;
35128;SDS011;21301;43.626;10.580;2024-03-08T09:12:39;13.00;;;8.02;;
35128;SDS011;21301;43.626;10.580;2024-03-08T09:15:07;13.77;;;7.57;;
35128;SDS011;21301;43.626;10.580;2024-03-08T09:17:39;12.23;;;7.55;;
35128;SDS011;21301;43.626;10.580;2024-03-08T09:20:15;14.85;;;8.80;;
35128;SDS011;21301;43.626;10.580;2024-03-08T09:22:44;13.18;;;8.93;;
35128;SDS011;21301;43.626;10.580;2024-03-08T09:25:11;13.77;;;8.90;;
35128;SDS011;21301;43.626;10.580;2024-03-08T09:27:37;15.02;;;9.90;;
35128;SDS011;21301;43.626;10.580;2024-03-08T09:30:05;14.27;;;9.07;;
35128;SDS011;21301;43.626;10.580;2024-03-08T09:32:32;12.18;;;8.15;;
35128;SDS011;21301;43.626;10.580;2024-03-08T09:34:58;15.85;;;9.32;;
35128;SDS011;21301;43.626;10.580;2024-03-08T09:37:26;16.80;;;10.15;;
35128;SDS011;21301;43.626;10.580;2024-03-08T09:39:52;16.08;;;10.13;;
35128;SDS011;21301;43.626;10.580;2024-03-08T09:42:21;14.82;;;9.82;;
35128;SDS011;21301;43.626;10.580;2024-03-08T09:44:47;19.70;;;9.45;;
35128;SDS011;21301;43.626;10.580;2024-03-08T09:47:13;19.00;;;9.10;;
35128;SDS011;21301;43.626;10.580;2024-03-08T09:49:40;15.00;;;9.35;;
35128;SDS011;21301;43.626;10.580;2024-03-08T09:52:07;19.38;;;8.95;;
35128;SDS011;21301;43.626;10.580;2024-03-08T09:54:34;16.88;;;9.65;;
35128;SDS011;21301;43.626;10.580;2024-03-08T09:57:00;14.88;;;8.85;;
35128;SDS011;21301;43.626;10.580;2024-03-08T09:59:29;12.68;;;8.05;;
35128;SDS011;21301;43.626;10.580;2024-03-08T10:02:12;15.02;;;8.60;;
35128;SDS011;21301;43.626;10.580;2024-03-08T10:04:42;14.43;;;7.70;;
35128;SDS011;21301;43.626;10.580;2024-03-08T10:07:08;13.45;;;7.78;;
35128;SDS011;21301;43.626;10.580;2024-03-08T10:09:34;15.40;;;8.63;;
35128;SDS011;21301;43.626;10.580;2024-03-08T10:12:26;16.23;;;8.27;;
35128;SDS011;21301;43.626;10.580;2024-03-08T10:15:00;13.68;;;7.25;;
35128;SDS011;21301;43.626;10.580;2024-03-08T10:17:26;13.48;;;7.15;;
35128;SDS011;21301;43.626;10.580;2024-03-08T10:19:57;11.07;;;6.88;;
35128;SDS011;21301;43.626;10.580;2024-03-08T10:22:25;12.18;;;7.65;;
35128;SDS011;21301;43.626;10.580;2024-03-08T10:24:51;15.13;;;7.55;;
35128;SDS011;21301;43.626;10.580;2024-03-08T10:27:18;13.45;;;6.75;;
35128;SDS011;21301;43.626;10.580;2024-03-08T10:29:48;12.50;;;6.85;;
35128;SDS011;21301;43.626;10.580;2024-03-08T10:32:20;11.23;;;6.07;;
35128;SDS011;21301;43.626;10.580;2024-03-08T10:34:46;9.90;;;6.28;;
35128;SDS011;21301;43.626;10.580;2024-03-08T10:37:14;17.80;;;6.65;;
35128;SDS011;21301;43.626;10.580;2024-03-08T10:39:53;12.10;;;5.50;;
35128;SDS011;21301;43.626;10.580;2024-03-08T10:42:28;9.10;;;5.70;;
35128;SDS011;21301;43.626;10.580;2024-03-08T10:45:05;8.30;;;4.85;;
35128;SDS011;21301;43.626;10.580;2024-03-08T10:47:40;10.80;;;4.23;;
35128;SDS011;21301;43.626;10.580;2024-03-08T10:52:38;11.10;;;5.15;;
35128;SDS011;21301;43.626;10.580;2024-03-08T10:55:05;9.35;;;4.95;;
35128;SDS011;21301;43.626;10.580;2024-03-08T10:57:40;8.88;;;4.90;;
35128;SDS011;21301;43.626;10.580;2024-03-08T11:00:07;8.05;;;4.82;;
35128;SDS011;21301;43.626;10.580;2024-03-08T11:02:38;11.25;;;5.78;;
35128;SDS011;21301;43.626;10.580;2024-03-08T11:05:04;8.40;;;4.85;;
35128;SDS011;21301;43.626;10.580;2024-03-08T11:07:34;7.70;;;4.70;;
35128;SDS011;21301;43.626;10.580;2024-03-08T11:10:04;8.55;;;4.22;;
35128;SDS011;21301;43.626;10.580;2024-03-08T11:12:37;9.10;;;4.45;;
35128;SDS011;21301;43.626;10.580;2024-03-08T11:15:13;8.15;;;4.15;;
35128;SDS011;21301;43.626;10.580;2024-03-08T11:17:47;9.90;;;4.78;;
35128;SDS011;21301;43.626;10.580;2024-03-08T11:20:19;9.38;;;4.65;;
35128;SDS011;21301;43.626;10.580;2024-03-08T11:25:37;11.45;;;7.47;;
35128;SDS011;21301;43.626;10.580;2024-03-08T11:28:17;9.32;;;4.88;;
35128;SDS011;21301;43.626;10.580;2024-03-08T11:30:47;11.40;;;4.68;;
35128;SDS011;21301;43.626;10.580;2024-03-08T11:33:31;11.23;;;5.60;;
35128;SDS011;21301;43.626;10.580;2024-03-08T11:36:12;6.10;;;2.28;;
35128;SDS011;21301;43.626;10.580;2024-03-08T11:38:47;5.38;;;1.95;;
35128;SDS011;21301;43.626;10.580;2024-03-08T11:41:16;7.28;;;1.40;;
35128;SDS011;21301;43.626;10.580;2024-03-08T11:43:47;3.90;;;1.83;;
35128;SDS011;21301;43.626;10.580;2024-03-08T11:46:15;4.22;;;1.58;;
35128;SDS011;21301;43.626;10.580;2024-03-08T11:48:42;4.32;;;1.50;;
35128;SDS011;21301;43.626;10.580;2024-03-08T11:51:13;6.40;;;2.42;;
35128;SDS011;21301;43.626;10.580;2024-03-08T11:53:44;5.55;;;1.90;;
35128;SDS011;21301;43.626;10.580;2024-03-08T11:59:10;5.38;;;2.03;;
35128;SDS011;21301;43.626;10.580;2024-03-08T12:01:57;8.07;;;2.38;;
35128;SDS011;21301;43.626;10.580;2024-03-08T12:04:34;5.65;;;2.03;;
35128;SDS011;21301;43.626;10.580;2024-03-08T12:07:02;4.38;;;2.13;;
35128;SDS011;21301;43.626;10.580;2024-03-08T12:12:47;5.68;;;1.92;;
35128;SDS011;21301;43.626;10.580;2024-03-08T12:15:28;6.10;;;2.25;;
35128;SDS011;21301;43.626;10.580;2024-03-08T12:17:58;8.95;;;1.60;;
35128;SDS011;21301;43.626;10.580;2024-03-08T12:20:26;5.57;;;2.17;;
35128;SDS011;21301;43.626;10.580;2024-03-08T12:22:58;5.93;;;1.50;;
35128;SDS011;21301;43.626;10.580;2024-03-08T12:25:31;3.45;;;1.20;;
35128;SDS011;21301;43.626;10.580;2024-03-08T12:28:09;4.50;;;1.88;;
35128;SDS011;21301;43.626;10.580;2024-03-08T12:30:49;12.98;;;5.25;;
35128;SDS011;21301;43.626;10.580;2024-03-08T12:33:22;15.00;;;9.20;;
35128;SDS011;21301;43.626;10.580;2024-03-08T12:35:52;11.45;;;4.18;;
35128;SDS011;21301;43.626;10.580;2024-03-08T12:38:21;3.95;;;1.83;;
35128;SDS011;21301;43.626;10.580;2024-03-08T12:40:50;7.25;;;3.05;;
35128;SDS011;21301;43.626;10.580;2024-03-08T12:43:20;6.38;;;2.05;;
35128;SDS011;21301;43.626;10.580;2024-03-08T12:45:46;3.78;;;1.27;;
35128;SDS011;21301;43.626;10.580;2024-03-08T12:48:13;8.50;;;3.60;;
35128;SDS011;21301;43.626;10.580;2024-03-08T12:50:41;7.00;;;2.85;;
35128;SDS011;21301;43.626;10.580;2024-03-08T12:53:13;5.20;;;2.63;;
35128;SDS011;21301;43.626;10.580;2024-03-08T12:55:39;7.82;;;3.42;;
35128;SDS011;21301;43.626;10.580;2024-03-08T12:58:05;6.97;;;2.83;;
35128;SDS011;21301;43.626;10.580;2024-03-08T13:00:36;6.60;;;2.90;;
35128;SDS011;21301;43.626;10.580;2024-03-08T13:03:02;5.93;;;2.58;;
35128;SDS011;21301;43.626;10.580;2024-03-08T13:05:28;7.68;;;3.05;;
35128;SDS011;21301;43.626;10.580;2024-03-08T13:07:55;9.63;;;3.55;;
35128;SDS011;21301;43.626;10.580;2024-03-08T13:10:27;6.68;;;3.13;;
35128;SDS011;21301;43.626;10.580;2024-03-08T13:13:57;8.50;;;3.00;;
35128;SDS011;21301;43.626;10.580;2024-03-08T13:16:54;7.53;;;3.00;;
35128;SDS011;21301;43.626;10.580;2024-03-08T13:19:20;5.97;;;3.20;;
35128;SDS011;21301;43.626;10.580;2024-03-08T13:21:47;6.15;;;3.47;;
35128;SDS011;21301;43.626;10.580;2024-03-08T13:24:16;7.68;;;3.05;;
35128;SDS011;21301;43.626;10.580;2024-03-08T13:26:44;6.00;;;2.83;;
35128;SDS011;21301;43.626;10.580;2024-03-08T13:29:11;6.90;;;3.25;;
35128;SDS011;21301;43.626;10.580;2024-03-08T13:31:37;8.13;;;3.85;;
35128;SDS011;21301;43.626;10.580;2024-03-08T13:34:15;10.07;;;3.58;;
35128;SDS011;21301;43.626;10.580;2024-03-08T13:36:41;7.80;;;4.13;;
35128;SDS011;21301;43.626;10.580;2024-03-08T13:39:37;9.45;;;2.90;;
35128;SDS011;21301;43.626;10.580;2024-03-08T13:42:14;6.07;;;2.97;;
35128;SDS011;21301;43.626;10.580;2024-03-08T13:44:45;8.93;;;3.05;;
35128;SDS011;21301;43.626;10.580;2024-03-08T13:47:15;7.93;;;2.97;;
35128;SDS011;21301;43.626;10.580;2024-03-08T13:49:42;6.47;;;2.75;;
35128;SDS011;21301;43.626;10.580;2024-03-08T13:52:09;5.60;;;2.75;;
35128;SDS011;21301;43.626;10.580;2024-03-08T13:54:36;5.32;;;2.67;;
35128;SDS011;21301;43.626;10.580;2024-03-08T13:57:02;5.55;;;2.42;;
35128;SDS011;21301;43.626;10.580;2024-03-08T13:59:32;7.35;;;3.25;;
35128;SDS011;21301;43.626;10.580;2024-03-08T14:02:01;4.90;;;2.72;;
35128;SDS011;21301;43.626;10.580;2024-03-08T14:04:27;5.63;;;3.22;;
35128;SDS011;21301;43.626;10.580;2024-03-08T14:06:54;8.88;;;3.03;;
35128;SDS011;21301;43.626;10.580;2024-03-08T14:09:23;10.88;;;4.43;;
35128;SDS011;21301;43.626;10.580;2024-03-08T14:11:50;6.85;;;3.53;;
35128;SDS011;21301;43.626;10.580;2024-03-08T14:14:19;7.60;;;4.43;;
35128;SDS011;21301;43.626;10.580;2024-03-08T14:16:46;8.07;;;3.65;;
35128;SDS011;21301;43.626;10.580;2024-03-08T14:19:13;10.50;;;5.60;;
35128;SDS011;21301;43.626;10.580;2024-03-08T14:21:40;7.78;;;4.40;;
35128;SDS011;21301;43.626;10.580;2024-03-08T14:24:07;9.35;;;4.03;;
35128;SDS011;21301;43.626;10.580;2024-03-08T14:26:34;7.07;;;2.20;;
35128;SDS011;21301;43.626;10.580;2024-03-08T14:28:59;6.03;;;1.90;;
35128;SDS011;21301;43.626;10.580;2024-03-08T14:31:25;6.50;;;1.52;;
35128;SDS011;21301;43.626;10.580;2024-03-08T14:33:53;4.38;;;1.90;;
35128;SDS011;21301;43.626;10.580;2024-03-08T14:36:21;6.22;;;2.53;;
35128;SDS011;21301;43.626;10.580;2024-03-08T14:38:47;7.45;;;2.10;;
35128;SDS011;21301;43.626;10.580;2024-03-08T14:41:13;7.57;;;2.97;;
35128;SDS011;21301;43.626;10.580;2024-03-08T14:43:44;7.22;;;2.47;;
35128;SDS011;21301;43.626;10.580;2024-03-08T14:46:10;7.32;;;2.83;;
35128;SDS011;21301;43.626;10.580;2024-03-08T14:48:45;9.45;;;3.38;;
35128;SDS011;21301;43.626;10.580;2024-03-08T14:51:11;6.32;;;2.88;;
35128;SDS011;21301;43.626;10.580;2024-03-08T14:53:42;5.55;;;2.50;;
35128;SDS011;21301;43.626;10.580;2024-03-08T14:56:10;4.60;;;2.40;;
35128;SDS011;21301;43.626;10.580;2024-03-08T14:58:44;5.05;;;2.40;;